Time;durP1;ratioP1;P1;durP2;ratioP2;P2;SDS_P1;SDS_P2;PMS_P1;PMS_P2;Temp;Humidity;BMP_temperature;BMP_pressure;BME280_temperature;BME280_humidity;BME280_pressure;Samples;Min_cycle;Max_cycle;Signal;HPM_P1;HPM_P2
2020/12/08 00:01:00;;;;;;;22.23;13.73;;;3.20;99.90;;;;;;5114141;28;20059;-68
2020/12/08 00:03:26;;;;;;;21.85;14.02;;;3.20;99.90;;;;;;5113797;28;20498;-68
2020/12/08 00:05:53;;;;;;;20.83;12.77;;;3.20;99.90;;;;;;5113820;28;20096;-70
2020/12/08 00:08:19;;;;;;;21.40;13.18;;;3.20;99.90;;;;;;5113415;28;20047;-69
2020/12/08 00:10:46;;;;;;;22.13;14.07;;;3.30;99.90;;;;;;5113796;28;20051;-70
2020/12/08 00:13:12;;;;;;;21.60;13.75;;;3.20;99.90;;;;;;5113331;28;20047;-67
2020/12/08 00:15:39;;;;;;;22.60;14.27;;;3.20;99.90;;;;;;5113517;28;20044;-69
2020/12/08 00:18:05;;;;;;;21.05;13.18;;;3.20;99.90;;;;;;5115640;27;20043;-69
2020/12/08 00:20:32;;;;;;;22.48;13.40;;;3.10;99.90;;;;;;5112755;28;20040;-69
2020/12/08 00:22:58;;;;;;;23.45;14.40;;;3.00;99.90;;;;;;5113506;28;20051;-69
2020/12/08 00:25:25;;;;;;;22.92;14.45;;;2.90;99.90;;;;;;5095456;28;20043;-69
2020/12/08 00:27:52;;;;;;;22.17;14.05;;;2.90;99.90;;;;;;5113871;28;20066;-69
2020/12/08 00:30:18;;;;;;;25.05;14.18;;;2.80;99.90;;;;;;5095225;28;20043;-68
2020/12/08 00:32:45;;;;;;;24.75;14.48;;;2.70;99.90;;;;;;5112025;28;20043;-69
2020/12/08 00:35:13;;;;;;;22.55;13.90;;;2.60;99.90;;;;;;5112932;27;20126;-68
2020/12/08 00:37:46;;;;;;;24.38;15.48;;;2.50;99.90;;;;;;5113238;28;20122;-68
2020/12/08 00:40:13;;;;;;;22.73;13.70;;;2.40;99.90;;;;;;5095075;28;20058;-69
2020/12/08 00:42:40;;;;;;;22.67;14.38;;;2.30;99.90;;;;;;5111716;28;20474;-70
2020/12/08 00:45:10;;;;;;;23.58;13.70;;;2.20;99.90;;;;;;5113280;28;20763;-69
2020/12/08 00:47:37;;;;;;;26.00;15.75;;;2.20;99.90;;;;;;5112514;28;20358;-70
2020/12/08 00:50:05;;;;;;;29.25;16.42;;;2.20;99.90;;;;;;5111599;28;20051;-70
2020/12/08 00:52:33;;;;;;;26.02;16.35;;;2.20;99.90;;;;;;5111724;28;20044;-67
2020/12/08 00:55:06;;;;;;;26.17;16.13;;;2.20;99.90;;;;;;5112994;28;20136;-68
2020/12/08 00:57:33;;;;;;;24.80;14.35;;;2.20;99.90;;;;;;5112310;28;20158;-68
2020/12/08 00:59:59;;;;;;;25.05;14.40;;;2.30;99.90;;;;;;5093215;28;20039;-68
2020/12/08 01:02:26;;;;;;;25.52;15.07;;;2.30;99.90;;;;;;5111023;28;20157;-67
2020/12/08 01:04:53;;;;;;;28.02;16.63;;;2.30;99.90;;;;;;5110498;28;20079;-67
2020/12/08 01:07:19;;;;;;;26.02;15.73;;;2.40;99.90;;;;;;5111771;28;20051;-68
2020/12/08 01:09:46;;;;;;;26.85;15.95;;;2.40;99.90;;;;;;5111348;28;20052;-69
2020/12/08 01:12:12;;;;;;;28.27;16.23;;;2.40;99.90;;;;;;5112169;28;20046;-69
2020/12/08 01:14:39;;;;;;;25.48;14.98;;;2.40;99.90;;;;;;5112056;28;20040;-70
2020/12/08 01:17:06;;;;;;;26.65;16.50;;;2.30;99.90;;;;;;5102897;28;20118;-69
2020/12/08 01:19:33;;;;;;;25.95;15.10;;;2.30;99.90;;;;;;5110915;28;20044;-69
2020/12/08 01:21:59;;;;;;;24.50;15.35;;;2.40;99.90;;;;;;5097512;28;20520;-69
2020/12/08 01:24:26;;;;;;;23.80;14.35;;;2.30;99.90;;;;;;5108315;28;20055;-69
2020/12/08 01:26:56;;;;;;;26.92;15.18;;;2.30;99.90;;;;;;5112240;28;20048;-69
2020/12/08 01:29:24;;;;;;;27.10;15.32;;;2.30;99.90;;;;;;5112154;28;20085;-69
2020/12/08 01:31:52;;;;;;;26.05;15.55;;;2.20;99.90;;;;;;5111278;28;20510;-69
2020/12/08 01:34:18;;;;;;;24.55;15.13;;;2.10;99.90;;;;;;5111108;28;20069;-70
2020/12/08 01:36:45;;;;;;;25.35;15.77;;;2.00;99.90;;;;;;5102446;28;20050;-70
2020/12/08 01:39:12;;;;;;;29.38;15.95;;;1.90;99.90;;;;;;5110758;28;20059;-70
2020/12/08 01:41:39;;;;;;;29.63;16.60;;;1.80;99.90;;;;;;5106159;28;20051;-70
2020/12/08 01:44:05;;;;;;;26.40;15.55;;;1.70;99.90;;;;;;5111274;28;20051;-69
2020/12/08 01:46:33;;;;;;;28.23;16.13;;;1.60;99.90;;;;;;5111037;28;20044;-71
2020/12/08 01:48:59;;;;;;;26.25;14.93;;;1.60;99.90;;;;;;5112069;28;20075;-70
2020/12/08 01:51:27;;;;;;;25.98;15.73;;;1.50;99.90;;;;;;5111501;28;20044;-70
2020/12/08 01:53:54;;;;;;;29.02;17.17;;;1.50;99.90;;;;;;5112036;28;20044;-70
2020/12/08 01:56:20;;;;;;;29.90;17.75;;;1.50;99.90;;;;;;5111930;28;20126;-71
2020/12/08 01:58:47;;;;;;;29.50;16.80;;;1.50;99.90;;;;;;5112033;28;20409;-70
2020/12/08 02:01:14;;;;;;;28.40;17.08;;;1.50;99.90;;;;;;5108984;28;20039;-70
2020/12/08 02:03:42;;;;;;;29.95;16.08;;;1.50;99.90;;;;;;5110098;28;20051;-69
2020/12/08 02:06:09;;;;;;;27.38;17.00;;;1.60;99.90;;;;;;5108218;28;20165;-69
2020/12/08 02:08:37;;;;;;;26.52;15.73;;;1.70;99.90;;;;;;5110418;28;20070;-69
2020/12/08 02:11:05;;;;;;;27.10;16.40;;;1.70;99.90;;;;;;5110965;28;20652;-69
2020/12/08 02:13:33;;;;;;;27.98;15.80;;;1.80;99.90;;;;;;5111057;28;20048;-69
2020/12/08 02:16:00;;;;;;;27.90;16.13;;;1.90;99.90;;;;;;5109976;28;20569;-69
2020/12/08 02:18:27;;;;;;;28.10;16.15;;;1.90;99.90;;;;;;5111003;28;20035;-70
2020/12/08 02:21:02;;;;;;;25.73;15.57;;;2.00;99.90;;;;;;5110273;28;20052;-69
2020/12/08 02:23:29;;;;;;;23.95;15.00;;;2.00;99.90;;;;;;5110574;28;20044;-69
2020/12/08 02:26:01;;;;;;;26.35;15.45;;;2.10;99.90;;;;;;5110607;28;20066;-69
2020/12/08 02:28:28;;;;;;;24.42;15.30;;;2.20;99.90;;;;;;5111037;28;20260;-71
2020/12/08 02:30:55;;;;;;;24.88;15.07;;;2.20;99.90;;;;;;5109749;28;20490;-69
2020/12/08 02:33:26;;;;;;;25.10;14.65;;;2.30;99.90;;;;;;5109848;28;20044;-69
2020/12/08 02:35:56;;;;;;;24.92;14.80;;;2.40;99.90;;;;;;5110653;28;20398;-69
2020/12/08 02:38:24;;;;;;;25.95;15.07;;;2.40;99.90;;;;;;5110414;28;20074;-69
2020/12/08 02:40:51;;;;;;;25.10;15.02;;;2.40;99.90;;;;;;5110637;28;20058;-70
2020/12/08 02:43:18;;;;;;;26.17;15.23;;;2.50;99.90;;;;;;5110423;28;20051;-70
2020/12/08 02:45:45;;;;;;;27.05;15.20;;;2.50;99.90;;;;;;5111234;28;20048;-69
2020/12/08 02:48:11;;;;;;;25.02;15.00;;;2.50;99.90;;;;;;5109873;28;20039;-69
2020/12/08 02:50:56;;;;;;;25.48;15.23;;;2.50;99.90;;;;;;5110954;28;20094;-70
2020/12/08 02:53:23;;;;;;;25.58;14.73;;;2.50;99.90;;;;;;5110382;28;20044;-69
2020/12/08 02:55:49;;;;;;;24.42;15.30;;;2.60;99.90;;;;;;5109854;28;20406;-69
2020/12/08 02:58:16;;;;;;;24.00;14.07;;;2.60;99.90;;;;;;5110302;28;20063;-69
2020/12/08 03:00:43;;;;;;;25.17;14.45;;;2.60;99.90;;;;;;5110075;28;20470;-69
2020/12/08 03:03:09;;;;;;;27.92;16.92;;;2.70;99.90;;;;;;5110257;28;20052;-71
2020/12/08 03:05:36;;;;;;;25.30;15.93;;;2.70;99.90;;;;;;5100432;28;20040;-69
2020/12/08 03:08:02;;;;;;;26.63;15.30;;;2.70;99.90;;;;;;5091048;28;20078;-68
2020/12/08 03:10:29;;;;;;;23.08;14.60;;;2.80;99.90;;;;;;5091737;28;20048;-68
2020/12/08 03:12:55;;;;;;;25.88;14.75;;;2.80;99.90;;;;;;5109109;28;20047;-69
2020/12/08 03:15:22;;;;;;;26.92;15.85;;;2.80;99.90;;;;;;5096588;28;20135;-69
2020/12/08 03:17:49;;;;;;;30.20;16.38;;;2.80;99.90;;;;;;5110643;28;20043;-68
2020/12/08 03:20:15;;;;;;;29.17;16.05;;;2.80;99.90;;;;;;5109979;28;20054;-70
2020/12/08 03:22:41;;;;;;;27.58;15.52;;;2.80;99.90;;;;;;5109071;28;20060;-69
2020/12/08 03:25:08;;;;;;;31.30;17.27;;;2.80;99.90;;;;;;5092050;28;20047;-70
2020/12/08 03:27:36;;;;;;;29.75;16.70;;;2.80;99.90;;;;;;5107603;28;20051;-69
2020/12/08 03:30:05;;;;;;;29.67;16.88;;;2.90;99.90;;;;;;5110835;28;20087;-69
2020/12/08 03:32:32;;;;;;;30.15;17.83;;;2.90;99.90;;;;;;5109013;28;20048;-68
2020/12/08 03:34:58;;;;;;;30.13;16.90;;;2.90;99.90;;;;;;5110510;28;20050;-69
2020/12/08 03:37:25;;;;;;;29.35;16.98;;;2.90;99.90;;;;;;5109573;28;20048;-69
2020/12/08 03:39:51;;;;;;;29.10;17.05;;;3.00;99.90;;;;;;5109889;28;20056;-69
2020/12/08 03:42:18;;;;;;;34.25;18.67;;;3.00;99.90;;;;;;5108906;28;20059;-68
2020/12/08 03:44:44;;;;;;;29.52;17.23;;;3.00;99.90;;;;;;5109670;28;20046;-70
2020/12/08 03:47:11;;;;;;;30.52;17.25;;;3.00;99.90;;;;;;5110082;28;20048;-69
2020/12/08 03:49:37;;;;;;;30.20;16.98;;;3.00;99.90;;;;;;5109600;28;20054;-68
2020/12/08 03:52:05;;;;;;;33.20;17.83;;;3.00;99.90;;;;;;5091522;28;20059;-69
2020/12/08 03:54:31;;;;;;;30.63;16.83;;;3.00;99.90;;;;;;5108608;28;20039;-70
2020/12/08 03:56:58;;;;;;;31.55;18.45;;;3.00;99.90;;;;;;5107593;28;20093;-69
2020/12/08 03:59:25;;;;;;;34.63;18.30;;;3.00;99.90;;;;;;5109926;28;20043;-68
2020/12/08 04:01:52;;;;;;;33.70;18.00;;;3.00;99.90;;;;;;5109832;28;20047;-69
2020/12/08 04:04:19;;;;;;;38.10;20.13;;;3.00;99.90;;;;;;5109091;28;20130;-69
2020/12/08 04:06:46;;;;;;;36.92;19.40;;;3.00;99.90;;;;;;5110426;28;20059;-68
2020/12/08 04:09:14;;;;;;;33.65;18.98;;;3.10;99.90;;;;;;5108669;28;20098;-69
2020/12/08 04:11:40;;;;;;;42.05;22.75;;;3.10;99.90;;;;;;5091193;28;20055;-69
2020/12/08 04:14:07;;;;;;;37.67;19.23;;;3.10;99.90;;;;;;5109691;28;20398;-68
2020/12/08 04:16:36;;;;;;;40.03;21.55;;;3.10;99.90;;;;;;5110067;28;20075;-69
2020/12/08 04:19:05;;;;;;;36.75;19.63;;;3.10;99.90;;;;;;5110274;28;20051;-69
2020/12/08 04:21:33;;;;;;;38.13;20.85;;;3.20;99.90;;;;;;5109703;28;20048;-68
2020/12/08 04:24:02;;;;;;;42.92;22.17;;;3.20;99.90;;;;;;5109121;28;20504;-69
2020/12/08 04:26:30;;;;;;;37.33;20.77;;;3.30;99.90;;;;;;5109692;28;20057;-69
2020/12/08 04:28:59;;;;;;;39.95;21.23;;;3.30;99.90;;;;;;5108821;28;20052;-68
2020/12/08 04:31:27;;;;;;;40.95;21.45;;;3.30;99.90;;;;;;5109766;28;20039;-69
2020/12/08 04:33:54;;;;;;;38.25;20.70;;;3.30;99.90;;;;;;5107707;28;20406;-68
2020/12/08 04:36:22;;;;;;;38.10;21.48;;;3.30;99.90;;;;;;5095978;28;20044;-69
2020/12/08 04:38:50;;;;;;;37.05;20.23;;;3.30;99.90;;;;;;5112015;28;20440;-68
2020/12/08 04:41:24;;;;;;;37.25;20.75;;;3.30;99.90;;;;;;5113668;28;20051;-69
2020/12/08 04:43:51;;;;;;;35.92;19.48;;;3.30;99.90;;;;;;5112926;28;20386;-68
2020/12/08 04:46:22;;;;;;;38.88;20.60;;;3.40;99.90;;;;;;5113193;28;20565;-67
2020/12/08 04:48:50;;;;;;;39.72;20.80;;;3.40;99.90;;;;;;5111929;28;20051;-69
2020/12/08 04:51:17;;;;;;;39.88;21.40;;;3.40;99.90;;;;;;5111837;28;20054;-69
2020/12/08 04:53:46;;;;;;;40.65;21.00;;;3.40;99.90;;;;;;5113302;28;20048;-69
2020/12/08 04:56:13;;;;;;;37.58;21.23;;;3.40;99.90;;;;;;5111856;28;20116;-69
2020/12/08 04:58:42;;;;;;;41.13;21.75;;;3.40;99.90;;;;;;5094391;28;20047;-69
2020/12/08 05:01:10;;;;;;;39.90;20.73;;;3.40;99.90;;;;;;5093975;28;20146;-69
2020/12/08 05:03:40;;;;;;;39.50;21.65;;;3.40;99.90;;;;;;5112781;28;20059;-69
2020/12/08 05:06:13;;;;;;;41.80;22.50;;;3.40;99.90;;;;;;5094835;28;20044;-70
2020/12/08 05:08:40;;;;;;;41.22;22.23;;;3.40;99.90;;;;;;5113576;28;20082;-69
2020/12/08 05:11:08;;;;;;;38.40;21.80;;;3.40;99.90;;;;;;5111529;28;20092;-71
2020/12/08 05:13:34;;;;;;;39.50;21.67;;;3.40;99.90;;;;;;5094586;28;20047;-68
2020/12/08 05:16:08;;;;;;;38.78;21.85;;;3.40;99.90;;;;;;5113021;28;20149;-69
2020/12/08 05:18:36;;;;;;;39.15;21.30;;;3.40;99.90;;;;;;5112042;28;20040;-69
2020/12/08 05:21:11;;;;;;;37.88;20.55;;;3.40;99.90;;;;;;5112635;28;20082;-69
2020/12/08 05:23:46;;;;;;;34.90;19.52;;;3.40;99.90;;;;;;5111533;28;20051;-69
2020/12/08 05:26:15;;;;;;;37.53;20.90;;;3.40;99.90;;;;;;5113195;28;20466;-70
2020/12/08 05:28:43;;;;;;;40.13;20.50;;;3.40;99.90;;;;;;5111719;28;20048;-69
2020/12/08 05:31:10;;;;;;;38.05;20.38;;;3.40;99.90;;;;;;5094090;28;20734;-68
2020/12/08 05:33:44;;;;;;;40.63;21.73;;;3.40;99.90;;;;;;5109975;28;20636;-68
2020/12/08 05:36:12;;;;;;;37.17;20.35;;;3.40;99.90;;;;;;5113937;27;20043;-69
2020/12/08 05:38:39;;;;;;;40.25;21.67;;;3.40;99.90;;;;;;5112110;28;20054;-69
2020/12/08 05:41:07;;;;;;;40.25;21.65;;;3.40;99.90;;;;;;5110483;28;20051;-69
2020/12/08 05:43:39;;;;;;;36.80;20.33;;;3.40;99.90;;;;;;5111802;28;20039;-68
2020/12/08 05:46:10;;;;;;;38.70;21.13;;;3.30;99.90;;;;;;5109169;28;20054;-69
2020/12/08 05:48:37;;;;;;;37.13;20.52;;;3.20;99.90;;;;;;5111616;28;20050;-69
2020/12/08 05:51:07;;;;;;;38.95;20.92;;;3.20;99.90;;;;;;5110106;28;20398;-68
2020/12/08 05:53:34;;;;;;;36.38;19.92;;;3.20;99.90;;;;;;5111611;28;20039;-68
2020/12/08 05:56:04;;;;;;;41.50;21.60;;;3.10;99.90;;;;;;5104232;28;20076;-68
2020/12/08 05:58:31;;;;;;;43.95;22.33;;;3.10;99.90;;;;;;5107810;28;20040;-69
2020/12/08 06:01:06;;;;;;;42.88;22.23;;;3.10;99.90;;;;;;5109996;28;20481;-69
2020/12/08 06:03:34;;;;;;;39.58;21.55;;;3.10;99.90;;;;;;5111559;28;20043;-68
2020/12/08 06:06:10;;;;;;;44.38;22.08;;;3.10;99.90;;;;;;5092409;28;20048;-69
2020/12/08 06:08:46;;;;;;;45.83;23.52;;;3.10;99.90;;;;;;5111750;28;20122;-69
2020/12/08 06:11:14;;;;;;;42.58;22.35;;;3.10;99.90;;;;;;5111179;28;20058;-69
2020/12/08 06:13:46;;;;;;;37.90;21.85;;;3.10;99.90;;;;;;5110051;28;20051;-69
2020/12/08 06:16:20;;;;;;;39.25;20.70;;;3.10;99.90;;;;;;5111984;28;20040;-69
2020/12/08 06:18:50;;;;;;;39.83;21.13;;;3.10;99.90;;;;;;5110679;28;20050;-69
2020/12/08 06:21:24;;;;;;;41.92;21.35;;;3.10;99.90;;;;;;5111071;28;20043;-69
2020/12/08 06:24:00;;;;;;;41.55;22.33;;;3.10;99.90;;;;;;5110539;28;20057;-69
2020/12/08 06:26:28;;;;;;;38.25;20.90;;;3.10;99.90;;;;;;5111208;28;20545;-69
2020/12/08 06:28:55;;;;;;;38.63;19.75;;;3.10;99.90;;;;;;5110422;28;20047;-71
2020/12/08 06:31:22;;;;;;;38.33;20.45;;;3.10;99.90;;;;;;5111113;28;20058;-69
2020/12/08 06:33:56;;;;;;;37.70;20.77;;;3.10;99.90;;;;;;5109965;28;20052;-70
2020/12/08 06:36:27;;;;;;;39.53;21.73;;;3.10;99.90;;;;;;5110644;28;20100;-69
2020/12/08 06:38:56;;;;;;;38.90;20.27;;;3.10;99.90;;;;;;5110528;28;20066;-69
2020/12/08 06:41:39;;;;;;;36.25;20.42;;;3.10;99.90;;;;;;5110861;28;20054;-69
2020/12/08 06:44:14;;;;;;;37.67;19.60;;;3.10;99.90;;;;;;5111276;28;20413;-70
2020/12/08 06:46:54;;;;;;;36.10;19.60;;;3.00;99.90;;;;;;5109644;28;20054;-70
2020/12/08 06:49:33;;;;;;;39.28;22.65;;;3.00;99.90;;;;;;5109730;28;20525;-69
2020/12/08 06:52:00;;;;;;;38.88;21.30;;;3.00;99.90;;;;;;5109615;28;20058;-70
2020/12/08 06:54:26;;;;;;;40.53;21.83;;;2.90;99.90;;;;;;5110573;28;20118;-70
2020/12/08 06:57:00;;;;;;;40.10;22.98;;;2.90;99.90;;;;;;5110633;28;20067;-70
2020/12/08 06:59:28;;;;;;;41.53;22.85;;;2.80;99.90;;;;;;5110951;28;20040;-69
2020/12/08 07:01:59;;;;;;;43.63;22.73;;;2.70;99.90;;;;;;5110547;28;20062;-69
2020/12/08 07:04:29;;;;;;;46.78;24.25;;;2.70;99.90;;;;;;5109379;28;20059;-69
2020/12/08 07:06:59;;;;;;;55.33;27.90;;;2.70;99.90;;;;;;5091651;28;20055;-69
2020/12/08 07:09:32;;;;;;;42.83;22.67;;;2.70;99.90;;;;;;5111094;28;20059;-69
2020/12/08 07:12:02;;;;;;;41.10;20.90;;;2.70;99.90;;;;;;5110345;28;20046;-69
2020/12/08 07:14:29;;;;;;;39.95;21.35;;;2.60;99.90;;;;;;5110638;28;20048;-70
2020/12/08 07:16:56;;;;;;;36.85;21.08;;;2.60;99.90;;;;;;5109645;28;20051;-68
2020/12/08 07:19:23;;;;;;;41.13;22.08;;;2.50;99.90;;;;;;5110431;28;20126;-70
2020/12/08 07:21:58;;;;;;;40.00;20.63;;;2.40;99.90;;;;;;5109673;28;20135;-69
2020/12/08 07:24:25;;;;;;;40.25;21.33;;;2.40;99.90;;;;;;5109529;28;20051;-70
2020/12/08 07:26:58;;;;;;;38.25;20.27;;;2.40;99.90;;;;;;5109607;28;20421;-69
2020/12/08 07:29:25;;;;;;;36.92;20.50;;;2.40;99.90;;;;;;5110944;28;20050;-69
2020/12/08 07:31:51;;;;;;;41.15;21.48;;;2.40;99.90;;;;;;5110321;28;20047;-70
2020/12/08 07:34:18;;;;;;;34.58;20.20;;;2.40;99.90;;;;;;5107746;28;20075;-70
2020/12/08 07:36:45;;;;;;;43.70;22.15;;;2.40;99.90;;;;;;5092238;28;20050;-69
2020/12/08 07:39:19;;;;;;;40.75;21.40;;;2.40;99.90;;;;;;5108186;28;20470;-68
2020/12/08 07:41:46;;;;;;;36.92;19.83;;;2.40;99.90;;;;;;5102074;28;20769;-68
2020/12/08 07:44:17;;;;;;;40.70;21.05;;;2.40;99.90;;;;;;5109134;28;20048;-69
2020/12/08 07:46:49;;;;;;;53.30;28.08;;;2.40;99.90;;;;;;5107780;28;20112;-67
2020/12/08 07:49:16;;;;;;;42.75;23.17;;;2.40;99.90;;;;;;5109237;28;20708;-67
2020/12/08 07:51:43;;;;;;;37.47;20.55;;;2.40;99.90;;;;;;5109836;28;20047;-67
2020/12/08 07:54:09;;;;;;;38.03;19.85;;;2.40;99.90;;;;;;5109597;28;20048;-67
2020/12/08 07:56:37;;;;;;;37.15;19.92;;;2.40;99.90;;;;;;5109795;28;20040;-67
2020/12/08 07:59:05;;;;;;;38.55;21.75;;;2.40;99.90;;;;;;5109789;28;20048;-70
2020/12/08 08:01:44;;;;;;;53.38;27.10;;;2.40;99.90;;;;;;5108184;28;20669;-70
2020/12/08 08:04:12;;;;;;;37.85;20.73;;;2.50;99.90;;;;;;5108306;28;20238;-69
2020/12/08 08:06:38;;;;;;;36.90;20.88;;;2.50;99.90;;;;;;5108569;28;20486;-69
2020/12/08 08:09:07;;;;;;;37.85;20.25;;;2.50;99.90;;;;;;5110600;28;20119;-72
2020/12/08 08:11:35;;;;;;;36.55;19.73;;;2.50;99.90;;;;;;5111425;28;20128;-68
2020/12/08 08:14:03;;;;;;;35.55;19.77;;;2.50;99.90;;;;;;5113795;28;20044;-69
2020/12/08 08:16:30;;;;;;;35.67;20.40;;;2.50;99.90;;;;;;5112256;28;20071;-68
2020/12/08 08:18:57;;;;;;;39.95;21.60;;;2.40;99.90;;;;;;5113655;28;20159;-68
2020/12/08 08:21:24;;;;;;;37.88;20.48;;;2.40;99.90;;;;;;5112968;28;20504;-68
2020/12/08 08:23:50;;;;;;;39.00;21.42;;;2.40;99.90;;;;;;5112398;28;20047;-67
2020/12/08 08:26:17;;;;;;;36.53;20.42;;;2.40;99.90;;;;;;5113088;28;20043;-68
2020/12/08 08:28:44;;;;;;;37.65;20.63;;;2.40;99.90;;;;;;5112778;28;20189;-68
2020/12/08 08:31:13;;;;;;;43.53;20.83;;;2.30;99.90;;;;;;5112349;28;20068;-68
2020/12/08 08:33:40;;;;;;;35.83;19.73;;;2.30;99.90;;;;;;5112294;28;20135;-68
2020/12/08 08:36:06;;;;;;;37.28;21.27;;;2.40;99.90;;;;;;5102623;28;20126;-69
2020/12/08 08:38:33;;;;;;;34.90;19.60;;;2.40;99.90;;;;;;5107391;28;20414;-69
2020/12/08 08:41:00;;;;;;;34.25;19.70;;;2.50;99.90;;;;;;5112269;28;20047;-69
2020/12/08 08:43:27;;;;;;;37.20;20.73;;;2.50;99.90;;;;;;5113563;28;20490;-70
2020/12/08 08:45:55;;;;;;;37.28;20.33;;;2.60;99.90;;;;;;5112363;28;20055;-69
2020/12/08 08:48:22;;;;;;;38.80;20.10;;;2.70;99.90;;;;;;5113402;28;20053;-69
2020/12/08 08:50:49;;;;;;;32.13;17.95;;;2.70;99.90;;;;;;5111358;28;20398;-69
2020/12/08 08:53:16;;;;;;;37.90;19.55;;;2.80;99.90;;;;;;5113206;28;20043;-70
2020/12/08 08:55:43;;;;;;;37.45;19.75;;;2.80;99.90;;;;;;5109574;28;20398;-69
2020/12/08 08:58:13;;;;;;;36.28;20.10;;;2.80;99.90;;;;;;5112837;28;20044;-70
2020/12/08 09:00:41;;;;;;;38.72;20.85;;;2.80;99.90;;;;;;5109882;28;20050;-70
2020/12/08 09:03:08;;;;;;;36.53;19.92;;;2.80;99.90;;;;;;5111865;28;20043;-69
2020/12/08 09:05:35;;;;;;;32.45;18.63;;;2.80;99.90;;;;;;5111785;28;20100;-68
2020/12/08 09:08:02;;;;;;;42.35;23.88;;;2.90;99.90;;;;;;5093164;28;20124;-69
2020/12/08 09:10:29;;;;;;;39.08;21.67;;;3.00;99.90;;;;;;5094041;28;20061;-68
2020/12/08 09:12:55;;;;;;;39.60;20.73;;;3.00;99.90;;;;;;5111360;28;20051;-70
2020/12/08 09:15:22;;;;;;;37.25;20.35;;;3.00;99.90;;;;;;5111103;28;20040;-69
2020/12/08 09:17:48;;;;;;;37.58;20.42;;;3.10;99.90;;;;;;5111199;28;20052;-70
2020/12/08 09:20:15;;;;;;;34.25;19.25;;;3.20;99.90;;;;;;5092571;28;20048;-69
2020/12/08 09:22:42;;;;;;;34.25;19.95;;;3.40;99.90;;;;;;5111124;28;20050;-69
2020/12/08 09:25:09;;;;;;;35.35;20.23;;;3.40;99.90;;;;;;5110422;28;20307;-70
2020/12/08 09:27:36;;;;;;;37.08;21.13;;;3.50;99.90;;;;;;5108975;28;20047;-71
2020/12/08 09:30:05;;;;;;;32.30;18.90;;;3.60;99.90;;;;;;5108780;28;20051;-70
2020/12/08 09:32:31;;;;;;;33.80;19.40;;;3.70;99.90;;;;;;5110382;28;20043;-70
2020/12/08 09:34:58;;;;;;;35.38;20.05;;;3.80;99.90;;;;;;5109864;28;20066;-69
2020/12/08 09:37:25;;;;;;;34.97;19.17;;;3.80;99.90;;;;;;5110587;28;20044;-70
2020/12/08 09:39:53;;;;;;;48.50;26.60;;;4.00;99.90;;;;;;5109473;28;20478;-69
2020/12/08 09:42:20;;;;;;;37.80;20.92;;;4.10;99.90;;;;;;5110421;28;20200;-69
2020/12/08 09:44:48;;;;;;;37.22;20.98;;;4.20;99.90;;;;;;5097646;28;20043;-69
2020/12/08 09:47:16;;;;;;;35.00;20.00;;;4.30;99.90;;;;;;5110832;28;20044;-71
2020/12/08 09:49:44;;;;;;;38.45;21.65;;;4.40;99.90;;;;;;5111291;28;20047;-72
2020/12/08 09:52:11;;;;;;;33.72;19.15;;;4.40;99.90;;;;;;5108142;28;20059;-71
2020/12/08 09:54:37;;;;;;;33.53;19.48;;;4.40;99.90;;;;;;5111441;28;20198;-72
2020/12/08 09:57:04;;;;;;;32.78;19.20;;;4.60;99.90;;;;;;5096074;28;20062;-69
2020/12/08 09:59:31;;;;;;;35.28;21.13;;;4.60;99.90;;;;;;5109702;28;20047;-68
2020/12/08 10:02:02;;;;;;;33.72;20.15;;;4.70;99.90;;;;;;5110135;28;20048;-69
2020/12/08 10:04:29;;;;;;;32.08;19.42;;;4.70;99.90;;;;;;5109633;28;20043;-70
2020/12/08 10:06:55;;;;;;;29.63;18.60;;;4.70;99.90;;;;;;5110673;28;20048;-70
2020/12/08 10:09:22;;;;;;;31.85;18.10;;;4.80;99.90;;;;;;5111051;28;20096;-70
2020/12/08 10:11:49;;;;;;;30.88;18.55;;;4.90;99.90;;;;;;5110238;28;20048;-69
2020/12/08 10:14:15;;;;;;;29.75;18.33;;;4.80;99.90;;;;;;5111157;28;20506;-70
2020/12/08 10:16:42;;;;;;;30.70;18.48;;;4.80;99.90;;;;;;5110641;28;20402;-72
2020/12/08 10:19:09;;;;;;;33.55;18.35;;;4.80;99.90;;;;;;5109037;28;20532;-70
2020/12/08 10:21:35;;;;;;;34.15;19.55;;;4.80;99.90;;;;;;5109913;28;20083;-71
2020/12/08 10:24:04;;;;;;;29.10;17.42;;;4.90;99.90;;;;;;5110169;28;20047;-69
2020/12/08 10:26:31;;;;;;;31.20;18.65;;;5.00;99.90;;;;;;5110487;28;20070;-70
2020/12/08 10:28:57;;;;;;;34.03;20.58;;;5.00;99.90;;;;;;5111332;28;20042;-70
2020/12/08 10:31:24;;;;;;;32.33;19.23;;;5.10;99.90;;;;;;5108576;28;20044;-71
2020/12/08 10:33:51;;;;;;;34.88;20.67;;;5.10;99.90;;;;;;5110004;28;20458;-70
2020/12/08 10:36:17;;;;;;;35.60;19.92;;;5.20;99.90;;;;;;5108563;28;20202;-70
2020/12/08 10:38:44;;;;;;;34.53;19.83;;;5.30;99.90;;;;;;5099547;28;20050;-70
2020/12/08 10:41:10;;;;;;;32.50;18.77;;;5.40;99.90;;;;;;5109690;28;20066;-69
2020/12/08 10:43:37;;;;;;;30.67;19.00;;;5.50;99.90;;;;;;5093066;28;20478;-68
2020/12/08 10:46:04;;;;;;;31.30;18.50;;;5.70;99.90;;;;;;5108173;28;20425;-70
2020/12/08 10:48:32;;;;;;;30.33;17.20;;;5.80;99.90;;;;;;5110986;28;20350;-70
2020/12/08 10:50:58;;;;;;;30.52;18.27;;;5.90;99.90;;;;;;5099959;28;20613;-71
2020/12/08 10:53:25;;;;;;;33.95;18.50;;;6.10;99.90;;;;;;5110033;28;20078;-70
2020/12/08 10:55:51;;;;;;;29.27;18.40;;;6.30;99.90;;;;;;5091307;28;20130;-70
2020/12/08 10:58:18;;;;;;;28.25;17.17;;;6.40;99.90;;;;;;5107895;28;20386;-71
2020/12/08 11:00:45;;;;;;;30.00;17.23;;;6.70;99.90;;;;;;5109634;28;20130;-71
2020/12/08 11:03:13;;;;;;;28.75;17.73;;;7.00;99.90;;;;;;5109043;28;20080;-70
2020/12/08 11:05:40;;;;;;;25.27;16.60;;;7.20;99.90;;;;;;5109923;28;20079;-70
2020/12/08 11:08:07;;;;;;;26.88;16.63;;;7.40;99.90;;;;;;5108277;28;20146;-71
2020/12/08 11:10:33;;;;;;;24.38;16.50;;;7.70;99.90;;;;;;5110068;28;20050;-69
2020/12/08 11:13:00;;;;;;;24.25;15.85;;;7.90;99.90;;;;;;5107173;28;20047;-71
2020/12/08 11:15:28;;;;;;;29.98;16.42;;;8.20;99.90;;;;;;5110600;28;20043;-70
2020/12/08 11:17:54;;;;;;;29.27;17.15;;;8.40;99.90;;;;;;5107752;28;20135;-69
2020/12/08 11:20:22;;;;;;;25.92;16.42;;;8.70;99.90;;;;;;5109678;28;20451;-71
2020/12/08 11:22:48;;;;;;;24.80;16.42;;;8.90;99.90;;;;;;5107551;28;20409;-70
2020/12/08 11:25:15;;;;;;;24.52;16.75;;;9.20;99.90;;;;;;5110232;28;20047;-70
2020/12/08 11:27:41;;;;;;;28.38;18.15;;;9.50;99.90;;;;;;5108171;28;20055;-69
2020/12/08 11:30:07;;;;;;;30.27;18.23;;;9.50;99.90;;;;;;5110180;28;20047;-70
2020/12/08 11:32:34;;;;;;;26.88;16.60;;;10.10;99.90;;;;;;5108095;28;20036;-70
2020/12/08 11:35:00;;;;;;;22.08;15.68;;;10.80;99.90;;;;;;5108882;28;20048;-71
2020/12/08 11:37:29;;;;;;;28.00;15.88;;;11.00;99.90;;;;;;5108564;28;20044;-71
2020/12/08 11:40:12;;;;;;;22.17;16.55;;;11.10;99.90;;;;;;5106839;28;20043;-70
2020/12/08 11:42:38;;;;;;;25.90;17.10;;;10.40;99.90;;;;;;5109482;28;20456;-70
2020/12/08 11:45:05;;;;;;;23.05;16.25;;;9.80;99.90;;;;;;5111263;28;20096;-69
2020/12/08 11:47:32;;;;;;;22.35;16.25;;;9.30;99.90;;;;;;5113227;28;20062;-70
2020/12/08 11:49:58;;;;;;;22.98;15.98;;;8.90;99.90;;;;;;5113577;28;20491;-70
2020/12/08 11:52:25;;;;;;;21.67;15.82;;;8.50;99.90;;;;;;5111985;28;20052;-71
2020/12/08 11:54:51;;;;;;;24.55;16.52;;;8.30;99.90;;;;;;5113560;28;20048;-70
2020/12/08 11:57:18;;;;;;;23.48;16.27;;;8.30;99.90;;;;;;5110977;28;20048;-70
2020/12/08 11:59:44;;;;;;;22.42;16.48;;;8.50;99.90;;;;;;5113619;28;20130;-70
2020/12/08 12:02:10;;;;;;;20.60;15.10;;;8.70;99.90;;;;;;5113514;28;20055;-70
2020/12/08 12:04:42;;;;;;;23.53;15.13;;;9.00;99.90;;;;;;5113500;28;20580;-70
2020/12/08 12:07:08;;;;;;;20.38;14.93;;;9.20;99.90;;;;;;5111936;28;20048;-70
2020/12/08 12:09:35;;;;;;;26.80;16.73;;;9.50;99.90;;;;;;5112984;28;20506;-70
2020/12/08 12:12:01;;;;;;;22.90;15.82;;;9.70;99.90;;;;;;5110885;28;20043;-71
2020/12/08 12:14:28;;;;;;;21.55;14.07;;;10.30;99.90;;;;;;5112270;28;20066;-71
2020/12/08 12:16:54;;;;;;;21.27;13.88;;;11.00;99.90;;;;;;5111051;28;20047;-70
2020/12/08 12:19:21;;;;;;;20.15;13.88;;;12.10;99.90;;;;;;5113677;28;20534;-71
2020/12/08 12:21:47;;;;;;;20.63;14.02;;;13.40;99.90;;;;;;5112097;28;20050;-70
2020/12/08 12:24:14;;;;;;;18.10;13.15;;;13.80;99.90;;;;;;5110060;28;20062;-69
2020/12/08 12:26:44;;;;;;;18.55;13.52;;;14.50;99.90;;;;;;5112552;28;20059;-71
2020/12/08 12:29:10;;;;;;;17.65;13.45;;;15.40;99.90;;;;;;5111331;28;20043;-69
2020/12/08 12:31:37;;;;;;;16.67;13.93;;;15.90;99.90;;;;;;5112801;28;20410;-70
2020/12/08 12:34:03;;;;;;;16.27;13.15;;;16.70;99.90;;;;;;5110197;28;20480;-70
2020/12/08 12:36:30;;;;;;;16.30;13.13;;;17.30;99.90;;;;;;5092747;28;20055;-71
2020/12/08 12:38:56;;;;;;;18.10;13.30;;;18.00;98.10;;;;;;5091813;28;20036;-71